createdAt,value
2023-02-06T00:02:08.668Z,6.15
2023-02-06T00:05:11.224Z,6.78
2023-02-06T00:08:15.140Z,7.43
2023-02-06T00:11:17.858Z,9.95
2023-02-06T00:14:20.438Z,7.93
2023-02-06T00:17:23.010Z,7.40
2023-02-06T00:20:25.589Z,6.28
2023-02-06T00:23:29.496Z,6.00
2023-02-06T00:26:32.308Z,7.03
2023-02-06T00:29:34.861Z,7.60
2023-02-06T00:32:37.482Z,6.28
2023-02-06T00:35:40.056Z,7.63
2023-02-06T00:38:43.936Z,8.05
2023-02-06T00:41:46.477Z,6.03
2023-02-06T00:44:49.068Z,6.75
2023-02-06T00:47:51.662Z,7.00
2023-02-06T00:50:54.512Z,7.93
2023-02-06T00:53:58.429Z,8.13
2023-02-06T00:57:00.999Z,7.50
2023-02-06T01:00:03.648Z,7.70
2023-02-06T01:03:06.225Z,6.72
2023-02-06T01:06:08.836Z,8.65
2023-02-06T01:09:12.798Z,7.47
2023-02-06T01:12:15.336Z,8.05
2023-02-06T01:15:17.858Z,7.30
2023-02-06T01:18:20.439Z,8.45
2023-02-06T01:21:24.045Z,6.25
2023-02-06T01:24:28.044Z,6.60
2023-02-06T01:27:30.593Z,5.82
2023-02-06T01:30:33.310Z,6.82
2023-02-06T01:33:35.895Z,6.63
2023-02-06T01:36:38.492Z,7.85
2023-02-06T01:39:42.372Z,7.00
2023-02-06T01:42:45.010Z,6.20
2023-02-06T01:45:47.736Z,6.05
2023-02-06T01:48:51.751Z,6.05
2023-02-06T01:51:54.692Z,6.43
2023-02-06T01:55:00.123Z,6.25
2023-02-06T01:58:02.635Z,7.20
2023-02-06T02:01:05.925Z,7.82
2023-02-06T02:04:09.393Z,8.15
2023-02-06T02:07:13.536Z,6.43
2023-02-06T02:10:17.512Z,6.13
2023-02-06T02:13:20.044Z,7.00
2023-02-06T02:16:25.073Z,6.07
2023-02-06T02:20:13.374Z,6.28
2023-02-06T02:23:21.469Z,5.13
2023-02-06T02:26:47.942Z,5.65
2023-02-06T02:30:28.439Z,7.47
2023-02-06T02:34:05.673Z,7.40
2023-02-06T02:37:11.961Z,6.93
2023-02-06T02:40:19.210Z,5.13
2023-02-06T02:43:27.022Z,7.05
2023-02-06T02:46:31.891Z,7.10
2023-02-06T02:49:34.650Z,6.45
2023-02-06T02:52:38.597Z,5.35
2023-02-06T02:55:41.220Z,6.78
2023-02-06T02:58:43.752Z,5.63
2023-02-06T03:01:49.732Z,5.47
2023-02-06T03:04:53.595Z,5.15
2023-02-06T03:08:03.853Z,5.05
2023-02-06T03:11:10.301Z,6.80
2023-02-06T03:14:16.525Z,5.38
2023-02-06T03:17:20.785Z,6.22
2023-02-06T03:20:23.313Z,6.13
2023-02-06T03:23:29.636Z,6.05
2023-02-06T03:26:32.228Z,5.32
2023-02-06T03:29:35.169Z,5.28
2023-02-06T03:32:39.619Z,5.65
2023-02-06T03:35:42.240Z,5.95
2023-02-06T03:38:46.461Z,5.30
2023-02-06T03:41:49.068Z,6.40
2023-02-06T03:44:53.657Z,6.22
2023-02-06T03:47:57.295Z,5.60
2023-02-06T03:51:00.503Z,7.53
2023-02-06T03:54:05.168Z,6.50
2023-02-06T03:57:08.565Z,5.45
2023-02-06T04:00:12.469Z,6.20
2023-02-06T04:03:15.005Z,5.93
2023-02-06T04:06:17.581Z,5.93
2023-02-06T04:09:21.475Z,5.38
2023-02-06T04:12:24.084Z,5.47
2023-02-06T04:15:26.606Z,5.60
2023-02-06T04:18:29.126Z,5.82
2023-02-06T04:21:31.640Z,5.50
2023-02-06T04:24:36.705Z,5.28
2023-02-06T04:27:39.354Z,4.57
2023-02-06T04:30:42.082Z,5.18
2023-02-06T04:33:44.743Z,4.65
2023-02-06T04:36:47.342Z,6.30
2023-02-06T04:39:51.261Z,6.03
2023-02-06T04:42:53.792Z,4.90
2023-02-06T04:45:56.383Z,6.38
2023-02-06T04:48:58.911Z,5.72
2023-02-06T04:52:01.442Z,5.93
2023-02-06T04:55:05.558Z,4.90
2023-02-06T04:58:08.086Z,5.95
2023-02-06T05:01:10.669Z,5.22
2023-02-06T05:04:13.238Z,6.40
2023-02-06T05:07:15.791Z,5.80
2023-02-06T05:10:19.883Z,5.38
2023-02-06T05:13:22.387Z,5.15
2023-02-06T05:16:24.976Z,5.10
2023-02-06T05:19:27.565Z,5.55
2023-02-06T05:22:30.150Z,6.07
2023-02-06T05:25:35.164Z,5.28
2023-02-06T05:28:37.863Z,3.97
2023-02-06T05:31:40.623Z,6.80
2023-02-06T05:34:43.184Z,4.90
2023-02-06T05:37:45.743Z,5.53
2023-02-06T05:40:52.320Z,5.68
2023-02-06T05:43:54.875Z,5.07
2023-02-06T05:46:57.605Z,5.68
2023-02-06T05:50:00.194Z,6.07
2023-02-06T05:53:02.751Z,5.07
2023-02-06T05:56:07.262Z,5.10
2023-02-06T05:59:09.805Z,4.00
2023-02-06T06:02:12.382Z,6.70
2023-02-06T06:05:14.964Z,6.47
2023-02-06T06:08:17.524Z,4.50
2023-02-06T06:11:21.440Z,5.07
2023-02-06T06:14:24.001Z,5.80
2023-02-06T06:17:26.572Z,5.40
2023-02-06T06:20:29.160Z,5.18
2023-02-06T06:23:31.736Z,5.25
2023-02-06T06:26:35.662Z,5.07
2023-02-06T06:29:38.270Z,5.70
2023-02-06T06:32:40.856Z,5.78
2023-02-06T06:35:43.452Z,4.70
2023-02-06T06:38:46.078Z,5.80
2023-02-06T06:41:50.014Z,5.45
2023-02-06T06:44:52.551Z,6.68
2023-02-06T06:47:55.078Z,7.00
2023-02-06T06:50:57.617Z,5.82
2023-02-06T06:54:00.180Z,5.78
2023-02-06T06:57:04.129Z,5.18
2023-02-06T07:00:07.391Z,5.80
2023-02-06T07:03:11.623Z,4.63
2023-02-06T07:06:14.243Z,5.55
2023-02-06T07:09:17.057Z,5.13
2023-02-06T07:12:21.065Z,5.20
2023-02-06T07:15:23.683Z,5.30
2023-02-06T07:18:26.215Z,6.00
2023-02-06T07:21:28.844Z,6.15
2023-02-06T07:24:31.380Z,5.55
2023-02-06T07:27:35.300Z,4.72
2023-02-06T07:30:37.866Z,5.00
2023-02-06T07:33:40.441Z,5.97
2023-02-06T07:36:43.101Z,5.25
2023-02-06T07:39:45.673Z,7.00
2023-02-06T07:42:49.630Z,5.85
2023-02-06T07:45:52.237Z,6.32
2023-02-06T07:48:54.777Z,5.05
2023-02-06T07:51:57.389Z,5.47
2023-02-06T07:54:59.941Z,5.30
2023-02-06T07:58:03.877Z,4.50
2023-02-06T08:01:06.760Z,4.95
2023-02-06T08:04:09.383Z,5.70
2023-02-06T08:07:14.891Z,6.53
2023-02-06T08:10:17.834Z,5.45
2023-02-06T08:13:21.729Z,6.30
2023-02-06T08:16:24.608Z,5.30
2023-02-06T08:19:27.177Z,7.10
2023-02-06T08:22:29.730Z,7.35
2023-02-06T08:25:32.328Z,7.50
2023-02-06T08:28:36.366Z,6.20
2023-02-06T08:31:39.825Z,7.32
2023-02-06T08:34:42.516Z,7.60
2023-02-06T08:37:45.059Z,6.93
2023-02-06T08:40:47.588Z,5.88
2023-02-06T08:43:52.750Z,6.80
2023-02-06T08:47:08.879Z,8.63
2023-02-06T08:50:12.414Z,7.73
2023-02-06T08:53:14.953Z,6.78
2023-02-06T08:56:17.483Z,7.05
2023-02-06T08:59:21.363Z,5.38
2023-02-06T09:02:24.049Z,5.32
2023-02-06T09:05:26.677Z,6.85
2023-02-06T09:08:29.204Z,3.80
2023-02-06T09:11:31.943Z,4.13
2023-02-06T09:14:35.824Z,4.20
2023-02-06T09:17:38.329Z,4.65
2023-02-06T09:20:40.853Z,4.28
2023-02-06T09:23:44.385Z,4.15
2023-02-06T09:26:59.113Z,4.57
2023-02-06T09:30:04.371Z,5.47
2023-02-06T09:33:06.955Z,6.78
2023-02-06T09:36:11.061Z,4.57
2023-02-06T09:39:13.674Z,3.58
2023-02-06T09:42:26.409Z,4.93
2023-02-06T09:45:30.665Z,4.22
2023-02-06T09:48:34.496Z,3.67
2023-02-06T09:51:42.355Z,4.25
2023-02-06T09:54:47.752Z,3.45
2023-02-06T09:57:52.861Z,3.10
2023-02-06T10:01:06.846Z,3.05
2023-02-06T10:04:22.480Z,3.72
2023-02-06T10:07:44.939Z,4.72
2023-02-06T10:10:50.031Z,3.70
2023-02-06T10:13:55.044Z,3.92
2023-02-06T10:17:00.861Z,2.85
2023-02-06T10:20:05.937Z,3.13
2023-02-06T10:23:13.504Z,2.75
2023-02-06T10:26:18.191Z,4.00
2023-02-06T10:29:24.653Z,3.85
2023-02-06T10:32:35.832Z,3.15
2023-02-06T10:35:44.228Z,4.43
2023-02-06T10:39:12.781Z,3.38
2023-02-06T10:42:17.676Z,3.15
2023-02-06T10:45:30.737Z,4.20
2023-02-06T10:48:37.167Z,3.10
2023-02-06T10:51:42.404Z,3.58
2023-02-06T10:54:48.520Z,2.90
2023-02-06T10:57:54.736Z,2.45
2023-02-06T11:00:57.349Z,3.70
2023-02-06T11:04:04.597Z,3.28
2023-02-06T11:07:09.212Z,4.65
2023-02-06T11:10:13.567Z,2.78
2023-02-06T11:13:21.486Z,3.28
2023-02-06T11:16:26.031Z,2.75
2023-02-06T11:19:32.116Z,2.75
2023-02-06T11:22:44.283Z,3.78
2023-02-06T11:25:58.825Z,3.35
2023-02-06T11:29:03.393Z,2.88
2023-02-06T11:32:06.745Z,3.00
2023-02-06T11:35:21.748Z,4.28
2023-02-06T11:38:25.708Z,2.35
2023-02-06T11:41:28.329Z,2.63
2023-02-06T11:44:37.946Z,4.72
2023-02-06T11:47:40.486Z,3.08
2023-02-06T11:50:44.413Z,3.40
2023-02-06T11:53:56.733Z,3.13
2023-02-06T11:57:04.845Z,2.95
2023-02-06T12:00:20.807Z,2.97
2023-02-06T12:03:28.351Z,2.95
2023-02-06T12:06:33.692Z,3.60
2023-02-06T12:09:36.228Z,3.15
2023-02-06T12:12:40.682Z,2.67
2023-02-06T12:15:47.330Z,2.42
2023-02-06T12:21:56.270Z,2.88
2023-02-06T12:25:00.037Z,2.20
2023-02-06T12:28:05.679Z,3.08
2023-02-06T12:31:10.442Z,3.33
2023-02-06T12:34:14.908Z,2.88
2023-02-06T12:37:22.139Z,2.25
2023-02-06T12:40:36.136Z,1.92
2023-02-06T12:43:38.890Z,2.53
2023-02-06T12:46:41.501Z,3.33
2023-02-06T12:49:50.038Z,2.65
2023-02-06T12:52:56.593Z,2.42
2023-02-06T12:56:02.142Z,3.13
2023-02-06T12:59:15.535Z,2.67
2023-02-06T13:02:22.311Z,2.72
2023-02-06T13:05:27.637Z,2.60
2023-02-06T13:08:43.602Z,3.38
2023-02-06T13:11:46.164Z,2.45
2023-02-06T13:14:50.179Z,3.20
2023-02-06T13:17:54.215Z,3.10
2023-02-06T13:21:16.699Z,2.88
2023-02-06T13:24:21.220Z,2.67
2023-02-06T13:27:24.626Z,2.60
2023-02-06T13:30:46.447Z,3.30
2023-02-06T13:33:49.402Z,2.70
2023-02-06T13:36:55.170Z,2.63
2023-02-06T13:40:20.886Z,2.83
2023-02-06T13:43:26.642Z,2.38
2023-02-06T13:46:39.659Z,2.33
2023-02-06T13:50:26.367Z,2.22
2023-02-06T13:53:36.011Z,3.30
2023-02-06T13:56:46.182Z,2.38
2023-02-06T13:59:50.377Z,2.42
2023-02-06T14:02:55.218Z,2.03
2023-02-06T14:06:01.116Z,2.75
2023-02-06T14:09:09.427Z,3.30
2023-02-06T14:12:32.891Z,2.70
2023-02-06T14:15:39.446Z,2.78
2023-02-06T14:18:45.466Z,3.50
2023-02-06T14:21:53.020Z,2.80
2023-02-06T14:25:05.268Z,2.90
2023-02-06T14:28:15.228Z,2.50
2023-02-06T14:31:24.661Z,3.60
2023-02-06T14:34:35.485Z,3.42
2023-02-06T14:37:55.181Z,3.60
2023-02-06T14:40:59.261Z,3.55
2023-02-06T14:44:03.228Z,4.05
2023-02-06T14:47:05.825Z,3.90
2023-02-06T14:50:09.102Z,3.58
2023-02-06T14:53:18.674Z,3.35
2023-02-06T14:56:26.191Z,2.80
2023-02-06T14:59:30.446Z,4.00
2023-02-06T15:02:36.981Z,3.97
2023-02-06T15:05:39.508Z,3.40
2023-02-06T15:08:48.394Z,4.13
2023-02-06T15:11:51.752Z,2.80
2023-02-06T15:14:56.548Z,3.53
2023-02-06T15:18:00.320Z,3.25
2023-02-06T15:21:03.647Z,3.80
2023-02-06T15:24:09.128Z,3.97
2023-02-06T15:27:15.763Z,3.50
2023-02-06T15:30:21.502Z,2.77
2023-02-06T15:33:27.585Z,2.88
2023-02-06T15:36:31.866Z,3.03
2023-02-06T15:39:34.449Z,3.90
2023-02-06T15:42:37.066Z,2.38
2023-02-06T15:45:41.530Z,3.95
2023-02-06T15:48:50.458Z,2.08
2023-02-06T15:51:53.967Z,2.45
2023-02-06T15:54:58.063Z,3.25
2023-02-06T15:58:01.482Z,2.28
2023-02-06T16:01:05.918Z,3.45
2023-02-06T16:04:10.151Z,2.38
2023-02-06T16:07:14.192Z,2.40
2023-02-06T16:10:21.314Z,1.80
2023-02-06T16:13:26.488Z,2.55
2023-02-06T16:16:30.412Z,2.20
2023-02-06T16:19:42.181Z,2.47
2023-02-06T16:22:44.712Z,2.33
2023-02-06T16:25:47.368Z,2.20
2023-02-06T16:28:57.872Z,2.55
2023-02-06T16:32:02.834Z,2.25
2023-02-06T16:35:05.814Z,4.55
2023-02-06T16:38:10.137Z,1.92
2023-02-06T16:41:25.120Z,1.73
2023-02-06T16:44:42.993Z,2.22
2023-02-06T16:47:48.097Z,2.33
2023-02-06T16:50:50.675Z,2.78
2023-02-06T16:53:53.366Z,3.72
2023-02-06T16:56:57.017Z,2.67
2023-02-06T16:59:59.658Z,2.33
2023-02-06T17:03:03.570Z,2.78
2023-02-06T17:06:06.486Z,2.72
2023-02-06T17:09:10.964Z,3.08
2023-02-06T17:12:14.718Z,2.40
2023-02-06T17:15:17.943Z,2.72
2023-02-06T17:18:22.512Z,2.10
2023-02-06T17:21:27.299Z,4.32
2023-02-06T17:24:29.863Z,3.28
2023-02-06T17:27:32.403Z,3.22
2023-02-06T17:30:35.839Z,3.58
2023-02-06T17:33:39.936Z,2.70
2023-02-06T17:36:43.097Z,2.70
2023-02-06T17:39:45.678Z,3.03
2023-02-06T17:42:48.735Z,3.67
2023-02-06T17:45:51.290Z,13.68
2023-02-06T17:48:55.166Z,4.50
2023-02-06T17:51:57.695Z,4.93
2023-02-06T17:55:00.269Z,6.93
2023-02-06T17:58:02.933Z,5.22
2023-02-06T18:01:05.564Z,4.80
2023-02-06T18:04:12.554Z,3.47
2023-02-06T18:07:15.150Z,2.92
2023-02-06T18:10:17.881Z,3.65
2023-02-06T18:13:21.084Z,4.20
2023-02-06T18:16:24.963Z,3.92
2023-02-06T18:19:28.902Z,3.55
2023-02-06T18:22:38.085Z,4.65
2023-02-06T18:25:43.154Z,3.58
2023-02-06T18:28:45.991Z,3.95
2023-02-06T18:31:48.670Z,4.68
2023-02-06T18:34:52.601Z,4.68
2023-02-06T18:37:55.392Z,4.88
2023-02-06T18:41:02.896Z,4.63
2023-02-06T18:47:07.426Z,6.65
2023-02-06T18:50:11.455Z,4.90
2023-02-06T18:53:14.085Z,4.35
2023-02-06T18:56:16.748Z,4.97
2023-02-06T18:59:19.357Z,4.35
2023-02-06T19:02:22.047Z,5.40
2023-02-06T19:05:25.988Z,3.85
2023-02-06T19:08:28.556Z,4.78
2023-02-06T19:11:31.080Z,4.43
2023-02-06T19:14:33.677Z,4.45
2023-02-06T19:17:36.233Z,4.25
2023-02-06T19:20:43.285Z,4.93
2023-02-06T19:23:46.354Z,4.60
2023-02-06T19:26:48.951Z,4.60
2023-02-06T19:29:51.500Z,4.57
2023-02-06T19:32:54.084Z,5.03
2023-02-06T19:35:58.017Z,3.97
2023-02-06T19:39:01.507Z,4.07
2023-02-06T19:42:06.615Z,5.18
2023-02-06T19:45:09.511Z,4.13
2023-02-06T19:48:13.744Z,4.63
2023-02-06T19:51:20.138Z,4.55
2023-02-06T19:54:22.732Z,3.72
2023-02-06T19:57:25.263Z,4.35
2023-02-06T20:00:27.878Z,3.70
2023-02-06T20:03:30.701Z,5.10
2023-02-06T20:06:35.424Z,3.47
2023-02-06T20:09:41.676Z,3.80
2023-02-06T20:12:44.277Z,2.92
2023-02-06T20:15:46.896Z,2.92
2023-02-06T20:18:49.446Z,2.80
2023-02-06T20:21:54.348Z,3.35
2023-02-06T20:24:56.965Z,4.03
2023-02-06T20:27:59.970Z,4.00
2023-02-06T20:31:08.500Z,4.43
2023-02-06T20:34:11.177Z,7.90
2023-02-06T20:37:17.579Z,5.45
2023-02-06T20:40:20.277Z,4.65
2023-02-06T20:43:22.918Z,6.00
2023-02-06T20:46:26.379Z,4.57
2023-02-06T20:49:31.221Z,4.45
2023-02-06T20:52:35.313Z,5.03
2023-02-06T20:55:41.516Z,5.07
2023-02-06T20:58:44.237Z,4.82
2023-02-06T21:01:46.785Z,4.60
2023-02-06T21:04:52.047Z,5.53
2023-02-06T21:07:57.590Z,5.68
2023-02-06T21:11:00.271Z,5.20
2023-02-06T21:14:03.669Z,5.85
2023-02-06T21:17:06.224Z,6.57
2023-02-06T21:20:09.745Z,5.18
2023-02-06T21:23:13.724Z,5.57
2023-02-06T21:26:17.521Z,5.13
2023-02-06T21:29:22.847Z,5.50
2023-02-06T21:32:25.476Z,4.40
2023-02-06T21:35:30.202Z,4.00
2023-02-06T21:38:34.213Z,4.45
2023-02-06T21:41:36.824Z,4.15
2023-02-06T21:44:39.366Z,4.95
2023-02-06T21:47:42.047Z,5.70
2023-02-06T21:50:44.969Z,5.05
2023-02-06T21:53:48.910Z,5.50
2023-02-06T21:56:51.628Z,5.57
2023-02-06T21:59:54.150Z,5.43
2023-02-06T22:02:56.741Z,5.65
2023-02-06T22:06:07.326Z,5.70
2023-02-06T22:09:16.252Z,5.63
2023-02-06T22:12:18.848Z,5.60
2023-02-06T22:15:21.478Z,4.15
2023-02-06T22:18:24.057Z,4.65
2023-02-06T22:21:27.443Z,5.10
2023-02-06T22:24:31.322Z,5.20
2023-02-06T22:27:33.933Z,6.38
2023-02-06T22:30:36.567Z,6.13
2023-02-06T22:33:39.250Z,6.85
2023-02-06T22:36:42.693Z,7.95
2023-02-06T22:39:46.840Z,8.23
2023-02-06T22:42:49.375Z,6.55
2023-02-06T22:45:51.961Z,5.65
2023-02-06T22:48:54.523Z,6.30
2023-02-06T22:51:57.872Z,5.80
2023-02-06T22:55:03.175Z,6.53
2023-02-06T22:58:05.724Z,6.07
2023-02-06T23:01:08.288Z,3.22
2023-02-06T23:04:12.411Z,3.47
2023-02-06T23:07:15.087Z,3.60
2023-02-06T23:10:19.483Z,5.45
2023-02-06T23:13:22.088Z,4.43
2023-02-06T23:16:24.857Z,4.22
2023-02-06T23:19:27.413Z,4.47
2023-02-06T23:22:29.941Z,3.75
2023-02-06T23:25:33.889Z,4.88
2023-02-06T23:28:36.475Z,5.45
2023-02-06T23:31:39.054Z,4.93
2023-02-06T23:34:41.589Z,5.80
2023-02-06T23:37:44.138Z,7.03
2023-02-06T23:40:48.660Z,6.88
2023-02-06T23:43:51.506Z,7.90
2023-02-06T23:46:54.266Z,7.78
2023-02-06T23:49:56.845Z,6.40
2023-02-06T23:52:59.425Z,6.80
2023-02-06T23:56:03.782Z,6.63
2023-02-06T23:59:06.573Z,5.43
